createdAt,value
2022-09-29T00:00:42.676Z,839.06
2022-09-29T00:01:42.738Z,839.01
2022-09-29T00:02:42.694Z,839.02
2022-09-29T00:03:42.720Z,839.03
2022-09-29T00:04:42.634Z,839.03
2022-09-29T00:05:42.628Z,839.01
2022-09-29T00:06:42.611Z,838.99
2022-09-29T00:07:42.595Z,838.98
2022-09-29T00:08:42.596Z,839.01
2022-09-29T00:09:42.632Z,838.98
2022-09-29T00:10:42.573Z,838.94
2022-09-29T00:11:42.551Z,838.97
2022-09-29T00:12:42.642Z,839.01
2022-09-29T00:13:42.526Z,838.98
2022-09-29T00:14:46.990Z,839.00
2022-09-29T00:15:43.597Z,839.07
2022-09-29T00:16:42.545Z,839.06
2022-09-29T00:18:02.758Z,839.04
2022-09-29T00:18:43.540Z,839.03
2022-09-29T00:19:42.463Z,839.05
2022-09-29T00:20:42.479Z,839.03
2022-09-29T00:21:42.504Z,839.03
2022-09-29T00:22:42.431Z,839.03
2022-09-29T00:23:42.419Z,839.08
2022-09-29T00:24:42.407Z,839.04
2022-09-29T00:25:42.419Z,839.05
2022-09-29T00:26:42.399Z,839.07
2022-09-29T00:27:42.433Z,839.11
2022-09-29T00:28:42.368Z,839.12
2022-09-29T00:29:42.457Z,839.15
2022-09-29T00:30:42.338Z,839.16
2022-09-29T00:31:42.372Z,839.12
2022-09-29T00:32:42.323Z,839.09
2022-09-29T00:33:42.345Z,839.08
2022-09-29T00:34:42.295Z,839.08
2022-09-29T00:35:42.303Z,839.12
2022-09-29T00:36:42.488Z,839.07
2022-09-29T00:37:42.265Z,839.12
2022-09-29T00:38:42.250Z,839.01
2022-09-29T00:39:42.301Z,838.96
2022-09-29T00:40:42.315Z,838.96
2022-09-29T00:41:42.254Z,838.95
2022-09-29T00:42:42.208Z,838.93
2022-09-29T00:43:42.195Z,838.94
2022-09-29T00:44:42.185Z,838.94
2022-09-29T00:45:42.254Z,838.94
2022-09-29T00:46:42.164Z,838.91
2022-09-29T00:47:42.159Z,838.93
2022-09-29T00:48:42.145Z,838.90
2022-09-29T00:49:42.143Z,838.89
2022-09-29T00:50:42.192Z,838.90
2022-09-29T00:51:42.114Z,838.89
2022-09-29T00:52:42.099Z,838.96
2022-09-29T00:53:42.089Z,838.97
2022-09-29T00:54:42.098Z,838.97
2022-09-29T00:55:42.079Z,838.98
2022-09-29T00:56:42.057Z,839.01
2022-09-29T00:57:42.068Z,839.02
2022-09-29T00:58:42.034Z,839.00
2022-09-29T00:59:42.022Z,839.04
2022-09-29T01:00:42.072Z,839.02
2022-09-29T01:01:42.037Z,839.04
2022-09-29T01:02:41.989Z,839.11
2022-09-29T01:03:41.979Z,839.08
2022-09-29T01:04:41.965Z,839.06
2022-09-29T01:05:41.959Z,839.08
2022-09-29T01:06:41.972Z,839.02
2022-09-29T01:07:41.940Z,839.02
2022-09-29T01:08:41.923Z,839.01
2022-09-29T01:09:41.909Z,838.97
2022-09-29T01:10:41.900Z,838.93
2022-09-29T01:11:41.893Z,838.91
2022-09-29T01:12:41.893Z,838.89
2022-09-29T01:13:41.914Z,838.80
2022-09-29T01:14:41.860Z,838.75
2022-09-29T01:15:41.849Z,838.74
2022-09-29T01:16:41.921Z,838.66
2022-09-29T01:17:41.826Z,838.64
2022-09-29T01:18:41.826Z,838.60
2022-09-29T01:19:41.803Z,838.54
2022-09-29T01:20:41.792Z,838.52
2022-09-29T01:21:41.783Z,838.49
2022-09-29T01:22:41.772Z,838.40
2022-09-29T01:23:41.773Z,838.39
2022-09-29T01:24:41.748Z,838.37
2022-09-29T01:25:41.810Z,838.34
2022-09-29T01:26:41.726Z,838.33
2022-09-29T01:27:41.719Z,838.33
2022-09-29T01:28:41.778Z,838.30
2022-09-29T01:29:41.720Z,838.27
2022-09-29T01:30:41.684Z,838.25
2022-09-29T01:31:41.737Z,838.19
2022-09-29T01:32:41.661Z,838.18
2022-09-29T01:33:41.710Z,838.18
2022-09-29T01:34:41.649Z,838.21
2022-09-29T01:35:41.643Z,838.24
2022-09-29T01:36:41.616Z,838.18
2022-09-29T01:37:41.604Z,838.23
2022-09-29T01:38:41.598Z,838.23
2022-09-29T01:39:41.696Z,838.18
2022-09-29T01:40:41.675Z,838.25
2022-09-29T01:41:41.563Z,838.20
2022-09-29T01:42:41.552Z,838.17
2022-09-29T01:43:41.539Z,838.15
2022-09-29T01:44:41.530Z,838.12
2022-09-29T01:45:41.655Z,838.09
2022-09-29T01:46:41.512Z,838.11
2022-09-29T01:47:41.495Z,838.12
2022-09-29T01:48:41.488Z,838.11
2022-09-29T01:49:41.479Z,838.15
2022-09-29T01:50:41.502Z,838.10
2022-09-29T01:51:41.495Z,838.13
2022-09-29T01:52:41.443Z,838.13
2022-09-29T01:53:41.430Z,838.18
2022-09-29T01:54:41.424Z,838.16
2022-09-29T01:55:41.409Z,838.19
2022-09-29T01:56:41.410Z,838.15
2022-09-29T01:57:41.518Z,838.12
2022-09-29T01:58:41.378Z,838.12
2022-09-29T01:59:41.364Z,838.13
2022-09-29T02:00:41.427Z,838.11
2022-09-29T02:01:41.455Z,838.12
2022-09-29T02:02:41.350Z,838.13
2022-09-29T02:03:41.353Z,838.16
2022-09-29T02:04:41.309Z,838.10
2022-09-29T02:05:41.297Z,838.16
2022-09-29T02:06:41.290Z,838.11
2022-09-29T02:07:41.281Z,838.14
2022-09-29T02:08:41.276Z,838.15
2022-09-29T02:09:41.266Z,838.11
2022-09-29T02:10:41.246Z,838.07
2022-09-29T02:11:41.233Z,838.05
2022-09-29T02:12:41.222Z,838.02
2022-09-29T02:13:41.213Z,837.96
2022-09-29T02:14:41.210Z,838.00
2022-09-29T02:15:41.204Z,837.96
2022-09-29T02:16:41.250Z,838.01
2022-09-29T02:17:41.193Z,838.02
2022-09-29T02:18:41.158Z,838.02
2022-09-29T02:19:41.258Z,838.04
2022-09-29T02:20:41.135Z,838.10
2022-09-29T02:21:41.230Z,838.08
2022-09-29T02:22:41.118Z,838.07
2022-09-29T02:23:41.102Z,838.04
2022-09-29T02:24:41.098Z,838.03
2022-09-29T02:25:41.090Z,838.07
2022-09-29T02:26:41.075Z,838.06
2022-09-29T02:27:41.064Z,838.10
2022-09-29T02:28:41.049Z,838.10
2022-09-29T02:29:41.046Z,838.10
2022-09-29T02:30:41.031Z,838.09
2022-09-29T02:31:41.112Z,838.09
2022-09-29T02:32:41.016Z,838.12
2022-09-29T02:33:41.020Z,838.13
2022-09-29T02:34:41.062Z,838.09
2022-09-29T02:35:41.089Z,838.11
2022-09-29T02:36:40.961Z,838.12
2022-09-29T02:37:41.029Z,838.13
2022-09-29T02:38:40.938Z,838.15
2022-09-29T02:39:40.927Z,838.22
2022-09-29T02:40:41.021Z,838.21
2022-09-29T02:41:40.934Z,838.25
2022-09-29T02:42:40.944Z,838.23
2022-09-29T02:43:40.884Z,838.21
2022-09-29T02:44:40.876Z,838.17
2022-09-29T02:45:40.886Z,838.19
2022-09-29T02:46:40.850Z,838.17
2022-09-29T02:47:40.852Z,838.22
2022-09-29T02:48:40.901Z,838.18
2022-09-29T02:49:40.856Z,838.18
2022-09-29T02:50:40.808Z,838.19
2022-09-29T02:51:40.796Z,838.16
2022-09-29T02:52:40.800Z,838.17
2022-09-29T02:53:40.775Z,838.17
2022-09-29T02:54:40.826Z,838.16
2022-09-29T02:55:40.753Z,838.11
2022-09-29T02:56:40.749Z,838.11
2022-09-29T02:57:40.728Z,838.06
2022-09-29T02:58:43.914Z,838.04
2022-09-29T02:59:41.707Z,838.05
2022-09-29T03:00:40.808Z,837.99
2022-09-29T03:01:40.687Z,838.07
2022-09-29T03:02:40.674Z,838.07
2022-09-29T03:03:40.677Z,838.10
2022-09-29T03:04:40.665Z,838.09
2022-09-29T03:05:40.671Z,838.11
2022-09-29T03:06:40.696Z,838.11
2022-09-29T03:07:40.624Z,838.10
2022-09-29T03:08:40.620Z,838.08
2022-09-29T03:09:40.599Z,838.12
2022-09-29T03:10:40.588Z,838.11
2022-09-29T03:11:40.582Z,838.13
2022-09-29T03:12:40.638Z,838.16
2022-09-29T03:13:40.558Z,838.18
2022-09-29T03:14:40.562Z,838.15
2022-09-29T03:15:40.552Z,838.11
2022-09-29T03:16:40.648Z,838.12
2022-09-29T03:17:40.531Z,838.10
2022-09-29T03:18:40.592Z,838.10
2022-09-29T03:19:40.495Z,838.09
2022-09-29T03:20:40.482Z,838.08
2022-09-29T03:21:40.505Z,838.09
2022-09-29T03:22:40.458Z,838.10
2022-09-29T03:23:40.446Z,838.10
2022-09-29T03:24:40.535Z,838.10
2022-09-29T03:25:40.427Z,838.16
2022-09-29T03:26:40.418Z,838.15
2022-09-29T03:27:40.418Z,838.17
2022-09-29T03:28:40.391Z,838.17
2022-09-29T03:29:40.379Z,838.17
2022-09-29T03:30:40.461Z,838.20
2022-09-29T03:31:40.447Z,838.17
2022-09-29T03:32:40.359Z,838.18
2022-09-29T03:33:40.342Z,838.18
2022-09-29T03:34:40.333Z,838.16
2022-09-29T03:35:44.244Z,838.17
2022-09-29T03:36:40.426Z,838.15
2022-09-29T03:37:40.428Z,838.16
2022-09-29T03:38:40.285Z,838.17
2022-09-29T03:39:40.270Z,838.13
2022-09-29T03:40:40.368Z,838.17
2022-09-29T03:41:40.251Z,838.16
2022-09-29T03:42:40.338Z,838.25
2022-09-29T03:43:40.243Z,838.20
2022-09-29T03:44:40.223Z,838.21
2022-09-29T03:45:40.291Z,838.22
2022-09-29T03:46:40.198Z,838.19
2022-09-29T03:47:40.188Z,838.21
2022-09-29T03:48:40.190Z,838.18
2022-09-29T03:49:40.237Z,838.17
2022-09-29T03:50:40.175Z,838.11
2022-09-29T03:51:40.142Z,838.17
2022-09-29T03:52:40.139Z,838.19
2022-09-29T03:53:40.149Z,838.22
2022-09-29T03:54:40.114Z,838.24
2022-09-29T03:55:40.203Z,838.23
2022-09-29T03:56:40.111Z,838.28
2022-09-29T03:57:40.077Z,838.29
2022-09-29T03:58:40.073Z,838.25
2022-09-29T03:59:45.250Z,838.32
2022-09-29T04:00:41.102Z,838.27
2022-09-29T04:01:40.126Z,838.29
2022-09-29T04:02:40.044Z,838.29
2022-09-29T04:03:40.018Z,838.28
2022-09-29T04:04:40.004Z,838.28
2022-09-29T04:05:39.993Z,838.30
2022-09-29T04:06:39.984Z,838.29
2022-09-29T04:07:39.980Z,838.27
2022-09-29T04:08:39.962Z,838.32
2022-09-29T04:09:39.977Z,838.30
2022-09-29T04:10:39.933Z,838.30
2022-09-29T04:11:39.937Z,838.30
2022-09-29T04:12:39.912Z,838.28
2022-09-29T04:13:39.903Z,838.31
2022-09-29T04:14:39.892Z,838.31
2022-09-29T04:15:39.898Z,838.30
2022-09-29T04:16:39.929Z,838.26
2022-09-29T04:17:39.877Z,838.29
2022-09-29T04:18:39.847Z,838.23
2022-09-29T04:19:39.840Z,838.26
2022-09-29T04:20:39.833Z,838.29
2022-09-29T04:21:39.928Z,838.27
2022-09-29T04:22:39.804Z,838.26
2022-09-29T04:23:39.802Z,838.22
2022-09-29T04:24:39.789Z,838.21
2022-09-29T04:25:39.807Z,838.25
2022-09-29T04:26:39.865Z,838.26
2022-09-29T04:27:39.764Z,838.26
2022-09-29T04:28:39.741Z,838.25
2022-09-29T04:29:39.738Z,838.23
2022-09-29T04:30:39.721Z,838.24
2022-09-29T04:31:39.730Z,838.18
2022-09-29T04:32:39.694Z,838.17
2022-09-29T04:33:39.695Z,838.17
2022-09-29T04:34:39.938Z,838.12
2022-09-29T04:35:39.661Z,838.07
2022-09-29T04:36:39.650Z,838.11
2022-09-29T04:37:39.644Z,838.04
2022-09-29T04:38:39.628Z,838.03
2022-09-29T04:39:39.628Z,838.01
2022-09-29T04:40:39.730Z,837.95
2022-09-29T04:41:39.647Z,838.01
2022-09-29T04:42:39.594Z,837.97
2022-09-29T04:43:39.582Z,837.95
2022-09-29T04:44:39.563Z,837.95
2022-09-29T04:45:39.635Z,837.96
2022-09-29T04:46:39.613Z,837.97
2022-09-29T04:47:39.531Z,838.00
2022-09-29T04:48:39.519Z,837.95
2022-09-29T04:49:39.524Z,837.96
2022-09-29T04:50:39.504Z,837.96
2022-09-29T04:51:39.487Z,837.98
2022-09-29T04:52:39.575Z,837.95
2022-09-29T04:53:39.464Z,837.95
2022-09-29T04:54:39.473Z,837.97
2022-09-29T04:55:39.441Z,837.92
2022-09-29T04:56:39.430Z,837.94
2022-09-29T04:57:39.444Z,837.90
2022-09-29T04:58:39.445Z,837.90
2022-09-29T04:59:39.418Z,837.88
2022-09-29T05:00:39.465Z,837.89
2022-09-29T05:01:39.375Z,837.84
2022-09-29T05:02:39.499Z,837.79
2022-09-29T05:03:39.354Z,837.78
2022-09-29T05:04:39.465Z,837.81
2022-09-29T05:05:39.347Z,837.83
2022-09-29T05:06:39.327Z,837.78
2022-09-29T05:07:39.310Z,837.80
2022-09-29T05:08:39.301Z,837.74
2022-09-29T05:09:39.287Z,837.71
2022-09-29T05:10:39.347Z,837.69
2022-09-29T05:11:39.280Z,837.64
2022-09-29T05:12:39.260Z,837.61
2022-09-29T05:13:39.269Z,837.59
2022-09-29T05:14:39.233Z,837.61
2022-09-29T05:15:39.224Z,837.62
2022-09-29T05:16:39.345Z,837.62
2022-09-29T05:17:39.210Z,837.60
2022-09-29T05:18:39.194Z,837.68
2022-09-29T05:19:39.177Z,837.66
2022-09-29T05:20:47.070Z,837.67
2022-09-29T05:21:40.158Z,837.63
2022-09-29T05:22:39.249Z,837.66
2022-09-29T05:23:39.136Z,837.63
2022-09-29T05:24:39.123Z,837.69
2022-09-29T05:25:39.109Z,837.70
2022-09-29T05:26:39.101Z,837.71
2022-09-29T05:27:39.164Z,837.76
2022-09-29T05:28:39.191Z,837.78
2022-09-29T05:29:39.194Z,837.80
2022-09-29T05:30:39.059Z,837.80
2022-09-29T05:31:39.124Z,837.78
2022-09-29T05:32:39.036Z,837.78
2022-09-29T05:33:39.028Z,837.87
2022-09-29T05:34:39.132Z,837.82
2022-09-29T05:35:39.005Z,837.82
2022-09-29T05:36:38.997Z,837.86
2022-09-29T05:37:38.985Z,837.87
2022-09-29T05:38:38.996Z,837.89
2022-09-29T05:39:38.964Z,837.88
2022-09-29T05:40:39.019Z,837.93
2022-09-29T05:41:38.938Z,837.86
2022-09-29T05:42:38.928Z,837.86
2022-09-29T05:43:38.920Z,837.82
2022-09-29T05:44:38.918Z,837.77
2022-09-29T05:45:38.988Z,837.78
2022-09-29T05:46:38.893Z,837.76
2022-09-29T05:47:38.895Z,837.76
2022-09-29T05:48:38.872Z,837.71
2022-09-29T05:49:38.853Z,837.72
2022-09-29T05:50:38.949Z,837.72
2022-09-29T05:51:38.833Z,837.67
2022-09-29T05:52:38.817Z,837.69
2022-09-29T05:53:38.808Z,837.71
2022-09-29T05:54:38.795Z,837.71
2022-09-29T05:55:38.782Z,837.72
2022-09-29T05:56:41.907Z,837.72
2022-09-29T05:57:39.763Z,837.78
2022-09-29T05:58:38.747Z,837.73
2022-09-29T05:59:38.738Z,837.73
2022-09-29T06:00:38.727Z,837.76
2022-09-29T06:01:38.947Z,837.72
2022-09-29T06:02:38.829Z,837.74
2022-09-29T06:03:38.694Z,837.72
2022-09-29T06:04:40.920Z,837.67
2022-09-29T06:05:38.675Z,837.66
2022-09-29T06:06:38.660Z,837.65
2022-09-29T06:07:38.670Z,837.65
2022-09-29T06:08:38.645Z,837.67
2022-09-29T06:09:38.642Z,837.65
2022-09-29T06:10:38.633Z,837.71
2022-09-29T06:11:38.608Z,837.72
2022-09-29T06:12:38.600Z,837.69
2022-09-29T06:13:38.593Z,837.74
2022-09-29T06:14:38.588Z,837.77
2022-09-29T06:15:38.567Z,837.73
2022-09-29T06:16:38.633Z,837.74
2022-09-29T06:17:38.757Z,837.78
2022-09-29T06:18:38.533Z,837.75
2022-09-29T06:19:41.727Z,837.81
2022-09-29T06:20:39.623Z,837.77
2022-09-29T06:21:38.497Z,837.81
2022-09-29T06:22:38.507Z,837.73
2022-09-29T06:23:38.479Z,837.79
2022-09-29T06:24:38.467Z,837.84
2022-09-29T06:25:38.521Z,837.82
2022-09-29T06:26:38.446Z,837.82
2022-09-29T06:27:38.435Z,837.82
2022-09-29T06:28:38.431Z,837.86
2022-09-29T06:29:38.425Z,837.87
2022-09-29T06:30:38.396Z,837.87
2022-09-29T06:31:38.489Z,837.90
2022-09-29T06:32:38.387Z,837.88
2022-09-29T06:33:38.435Z,837.85
2022-09-29T06:34:38.368Z,837.84
2022-09-29T06:35:38.347Z,837.82
2022-09-29T06:36:38.337Z,837.80
2022-09-29T06:37:38.397Z,837.83
2022-09-29T06:38:38.319Z,837.82
2022-09-29T06:39:38.302Z,837.84
2022-09-29T06:40:38.585Z,837.84
2022-09-29T06:41:38.274Z,837.80
2022-09-29T06:42:38.272Z,837.79
2022-09-29T06:43:38.324Z,837.78
2022-09-29T06:44:38.256Z,837.77
2022-09-29T06:45:38.311Z,837.78
2022-09-29T06:46:38.228Z,837.80
2022-09-29T06:47:38.211Z,837.82
2022-09-29T06:48:38.215Z,837.75
2022-09-29T06:49:38.257Z,837.79
2022-09-29T06:50:38.182Z,837.78
2022-09-29T06:51:45.291Z,837.75
2022-09-29T06:52:39.169Z,837.70
2022-09-29T06:53:38.993Z,837.77
2022-09-29T06:54:38.147Z,837.68
2022-09-29T06:55:38.145Z,837.70
2022-09-29T06:56:38.121Z,837.64
2022-09-29T06:57:38.109Z,837.67
2022-09-29T06:58:38.092Z,837.69
2022-09-29T06:59:38.102Z,837.66
2022-09-29T07:00:38.130Z,837.62
2022-09-29T07:01:38.179Z,837.62
2022-09-29T07:02:38.047Z,837.61
2022-09-29T07:03:38.039Z,837.60
2022-09-29T07:04:38.028Z,837.60
2022-09-29T07:05:38.048Z,837.58
2022-09-29T07:06:38.002Z,837.63
2022-09-29T07:07:38.058Z,837.63
2022-09-29T07:08:37.983Z,837.61
2022-09-29T07:09:37.971Z,837.67
2022-09-29T07:10:38.052Z,837.71
2022-09-29T07:11:37.951Z,837.71
2022-09-29T07:12:37.941Z,837.72
2022-09-29T07:13:37.957Z,837.75
2022-09-29T07:14:37.932Z,837.78
2022-09-29T07:15:37.907Z,837.78
2022-09-29T07:16:37.994Z,837.75
2022-09-29T07:17:37.884Z,837.80
2022-09-29T07:18:37.871Z,837.81
2022-09-29T07:19:37.929Z,837.81
2022-09-29T07:20:37.853Z,837.83
2022-09-29T07:21:37.861Z,837.79
2022-09-29T07:22:37.839Z,837.87
2022-09-29T07:23:37.817Z,837.83
2022-09-29T07:24:37.818Z,837.87
2022-09-29T07:25:51.542Z,837.86
2022-09-29T07:26:38.786Z,837.88
2022-09-29T07:27:37.773Z,837.86
2022-09-29T07:28:37.762Z,837.88
2022-09-29T07:29:37.761Z,837.90
2022-09-29T07:30:40.782Z,837.91
2022-09-29T07:31:48.940Z,837.91
2022-09-29T07:32:38.828Z,837.93
2022-09-29T07:33:39.360Z,837.96
2022-09-29T07:34:37.699Z,837.93
2022-09-29T07:35:40.073Z,837.95
2022-09-29T07:36:37.680Z,837.96
2022-09-29T07:37:37.745Z,838.00
2022-09-29T07:38:37.652Z,838.03
2022-09-29T07:39:37.642Z,838.05
2022-09-29T07:40:37.695Z,837.96
2022-09-29T07:41:37.621Z,837.99
2022-09-29T07:42:37.627Z,837.95
2022-09-29T07:43:37.683Z,837.94
2022-09-29T07:44:37.585Z,837.96
2022-09-29T07:45:37.648Z,837.98
2022-09-29T07:46:37.588Z,837.99
2022-09-29T07:47:37.552Z,837.99
2022-09-29T07:48:37.542Z,838.02
2022-09-29T07:49:37.596Z,838.00
2022-09-29T07:50:37.524Z,838.02
2022-09-29T07:51:37.508Z,838.01
2022-09-29T07:52:37.594Z,838.02
2022-09-29T07:53:37.516Z,837.99
2022-09-29T07:54:37.486Z,837.98
2022-09-29T07:55:37.504Z,837.95
2022-09-29T07:56:37.454Z,837.99
2022-09-29T07:57:37.441Z,837.98
2022-09-29T07:58:37.455Z,837.97
2022-09-29T07:59:40.864Z,838.00
2022-09-29T08:00:38.410Z,838.02
2022-09-29T08:01:37.473Z,837.97
2022-09-29T08:02:37.533Z,837.99
2022-09-29T08:03:37.392Z,837.99
2022-09-29T08:04:37.367Z,837.97
2022-09-29T08:05:37.354Z,838.00
2022-09-29T08:06:37.355Z,838.01
2022-09-29T08:07:37.391Z,838.00
2022-09-29T08:08:37.337Z,837.97
2022-09-29T08:09:41.128Z,837.96
2022-09-29T08:10:48.035Z,838.01
2022-09-29T08:11:38.319Z,837.93
2022-09-29T08:12:43.333Z,837.99
2022-09-29T08:13:38.323Z,837.99
2022-09-29T08:14:40.687Z,838.02
2022-09-29T08:15:38.257Z,837.99
2022-09-29T08:16:37.298Z,838.01
2022-09-29T08:17:37.228Z,838.02
2022-09-29T08:18:37.216Z,838.01
2022-09-29T08:19:37.240Z,838.04
2022-09-29T08:20:37.192Z,838.01
2022-09-29T08:21:37.324Z,838.02
2022-09-29T08:22:37.174Z,838.00
2022-09-29T08:23:37.160Z,837.99
2022-09-29T08:24:37.152Z,837.98
2022-09-29T08:25:37.184Z,837.99
2022-09-29T08:26:43.543Z,838.00
2022-09-29T08:27:49.104Z,838.03
2022-09-29T08:28:38.109Z,838.06
2022-09-29T08:29:45.263Z,838.09
2022-09-29T08:30:38.097Z,838.06
2022-09-29T08:31:37.325Z,838.11
2022-09-29T08:32:37.069Z,838.13
2022-09-29T08:33:37.050Z,838.19
2022-09-29T08:34:37.038Z,838.20
2022-09-29T08:35:37.035Z,838.18
2022-09-29T08:36:37.023Z,838.21
2022-09-29T08:37:37.063Z,838.21
2022-09-29T08:38:37.114Z,838.24
2022-09-29T08:39:36.984Z,838.28
2022-09-29T08:40:37.016Z,838.23
2022-09-29T08:41:36.995Z,838.30
2022-09-29T08:42:47.195Z,838.31
2022-09-29T08:43:37.953Z,838.30
2022-09-29T08:44:39.154Z,838.38
2022-09-29T08:45:37.151Z,838.35
2022-09-29T08:46:36.945Z,838.37
2022-09-29T08:47:45.879Z,838.35
2022-09-29T08:48:46.673Z,838.37
2022-09-29T08:49:37.884Z,838.40
2022-09-29T08:50:36.871Z,838.36
2022-09-29T08:51:42.447Z,838.39
2022-09-29T08:52:49.668Z,838.38
2022-09-29T08:53:37.832Z,838.40
2022-09-29T08:54:39.466Z,838.40
2022-09-29T08:55:36.814Z,838.45
2022-09-29T08:56:36.800Z,838.43
2022-09-29T08:57:36.813Z,838.44
2022-09-29T08:58:36.864Z,838.42
2022-09-29T08:59:36.778Z,838.44
2022-09-29T09:00:36.754Z,838.50
2022-09-29T09:01:36.774Z,838.51
2022-09-29T09:02:36.832Z,838.50
2022-09-29T09:03:36.723Z,838.52
2022-09-29T09:04:36.802Z,838.53
2022-09-29T09:05:36.701Z,838.51
2022-09-29T09:06:36.691Z,838.56
2022-09-29T09:07:36.687Z,838.56
2022-09-29T09:08:36.725Z,838.57
2022-09-29T09:09:36.654Z,838.54
2022-09-29T09:10:36.780Z,838.51
2022-09-29T09:11:36.638Z,838.51
2022-09-29T09:12:36.625Z,838.52
2022-09-29T09:13:36.658Z,838.51
2022-09-29T09:14:36.613Z,838.54
2022-09-29T09:15:36.601Z,838.52
2022-09-29T09:16:36.723Z,838.51
2022-09-29T09:17:36.579Z,838.49
2022-09-29T09:18:36.563Z,838.52
2022-09-29T09:19:36.553Z,838.47
2022-09-29T09:20:36.596Z,838.47
2022-09-29T09:21:36.586Z,838.42
2022-09-29T09:22:36.613Z,838.48
2022-09-29T09:23:36.507Z,838.46
2022-09-29T09:24:36.496Z,838.46
2022-09-29T09:25:36.486Z,838.46
2022-09-29T09:26:36.488Z,838.51
2022-09-29T09:27:36.462Z,838.50
2022-09-29T09:28:36.513Z,838.52
2022-09-29T09:29:37.887Z,838.49
2022-09-29T09:30:36.496Z,838.54
2022-09-29T09:31:36.419Z,838.48
2022-09-29T09:32:36.408Z,838.50
2022-09-29T09:33:36.393Z,838.47
2022-09-29T09:34:43.992Z,838.46
2022-09-29T09:35:41.981Z,838.48
2022-09-29T09:36:37.365Z,838.48
2022-09-29T09:37:36.373Z,838.50
2022-09-29T09:38:36.346Z,838.51
2022-09-29T09:39:36.330Z,838.51
2022-09-29T09:40:37.190Z,838.50
2022-09-29T09:41:36.479Z,838.49
2022-09-29T09:42:36.310Z,838.47
2022-09-29T09:43:36.287Z,838.46
2022-09-29T09:44:36.288Z,838.42
2022-09-29T09:45:36.327Z,838.47
2022-09-29T09:46:36.355Z,838.45
2022-09-29T09:47:36.254Z,838.40
2022-09-29T09:48:36.231Z,838.41
2022-09-29T09:49:36.224Z,838.41
2022-09-29T09:50:36.209Z,838.38
2022-09-29T09:51:36.263Z,838.41
2022-09-29T09:52:36.252Z,838.39
2022-09-29T09:53:36.200Z,838.38
2022-09-29T09:54:36.186Z,838.40
2022-09-29T09:55:36.157Z,838.36
2022-09-29T09:56:36.146Z,838.35
2022-09-29T09:57:36.153Z,838.39
2022-09-29T09:58:36.191Z,838.36
2022-09-29T09:59:36.112Z,838.35
2022-09-29T10:00:36.105Z,838.30
2022-09-29T10:01:36.223Z,838.33
2022-09-29T10:02:36.122Z,838.31
2022-09-29T10:03:36.077Z,838.34
2022-09-29T10:04:36.125Z,838.36
2022-09-29T10:05:36.050Z,838.36
2022-09-29T10:06:36.041Z,838.37
2022-09-29T10:07:36.025Z,838.35
2022-09-29T10:08:36.014Z,838.33
2022-09-29T10:09:36.094Z,838.34
2022-09-29T10:10:35.998Z,838.38
2022-09-29T10:11:35.997Z,838.39
2022-09-29T10:12:36.054Z,838.35
2022-09-29T10:13:35.972Z,838.38
2022-09-29T10:14:35.950Z,838.39
2022-09-29T10:15:36.027Z,838.40
2022-09-29T10:16:36.000Z,838.38
2022-09-29T10:17:35.939Z,838.43
2022-09-29T10:18:35.911Z,838.45
2022-09-29T10:19:35.896Z,838.45
2022-09-29T10:20:35.982Z,838.46
2022-09-29T10:21:35.873Z,838.50
2022-09-29T10:22:35.867Z,838.49
2022-09-29T10:23:35.876Z,838.49
2022-09-29T10:24:35.844Z,838.47
2022-09-29T10:25:35.836Z,838.45
2022-09-29T10:26:35.892Z,838.45
2022-09-29T10:27:35.809Z,838.49
2022-09-29T10:28:35.807Z,838.44
2022-09-29T10:29:35.787Z,838.49
2022-09-29T10:30:35.906Z,838.48
2022-09-29T10:31:35.762Z,838.51
2022-09-29T10:32:35.814Z,838.55
2022-09-29T10:33:35.767Z,838.60
2022-09-29T10:34:35.752Z,838.59
2022-09-29T10:35:35.724Z,838.57
2022-09-29T10:36:35.709Z,838.60
2022-09-29T10:37:35.754Z,838.68
2022-09-29T10:38:35.696Z,838.62
2022-09-29T10:39:35.676Z,838.63
2022-09-29T10:40:35.680Z,838.63
2022-09-29T10:41:35.657Z,838.64
2022-09-29T10:42:35.661Z,838.67
2022-09-29T10:43:35.632Z,838.67
2022-09-29T10:44:35.628Z,838.69
2022-09-29T10:45:35.653Z,838.67
2022-09-29T10:46:35.632Z,838.68
2022-09-29T10:47:35.591Z,838.69
2022-09-29T10:48:35.586Z,838.66
2022-09-29T10:49:35.588Z,838.65
2022-09-29T10:50:37.456Z,838.66
2022-09-29T10:51:35.553Z,838.61
2022-09-29T10:52:35.548Z,838.56
2022-09-29T10:53:35.528Z,838.58
2022-09-29T10:54:35.514Z,838.57
2022-09-29T10:55:35.498Z,838.58
2022-09-29T10:56:35.568Z,838.57
2022-09-29T10:57:35.503Z,838.58
2022-09-29T10:58:53.848Z,838.61
2022-09-29T10:59:36.453Z,838.58
2022-09-29T11:00:35.483Z,838.54
2022-09-29T11:01:35.478Z,838.57
2022-09-29T11:02:35.570Z,838.57
2022-09-29T11:03:35.426Z,838.55
2022-09-29T11:04:35.404Z,838.55
2022-09-29T11:05:35.418Z,838.57
2022-09-29T11:06:35.382Z,838.54
2022-09-29T11:07:35.373Z,838.55
2022-09-29T11:08:35.388Z,838.56
2022-09-29T11:09:35.517Z,838.55
2022-09-29T11:10:35.340Z,838.49
2022-09-29T11:11:35.329Z,838.54
2022-09-29T11:12:35.327Z,838.55
2022-09-29T11:13:35.358Z,838.50
2022-09-29T11:14:35.348Z,838.45
2022-09-29T11:15:35.293Z,838.53
2022-09-29T11:16:35.295Z,838.51
2022-09-29T11:17:35.271Z,838.51
2022-09-29T11:18:35.249Z,838.54
2022-09-29T11:19:35.240Z,838.53
2022-09-29T11:20:35.316Z,838.51
2022-09-29T11:21:35.250Z,838.51
2022-09-29T11:22:35.209Z,838.53
2022-09-29T11:23:35.198Z,838.54
2022-09-29T11:24:35.184Z,838.51
2022-09-29T11:25:35.180Z,838.51
2022-09-29T11:26:35.225Z,838.59
2022-09-29T11:27:35.166Z,838.57
2022-09-29T11:28:35.139Z,838.58
2022-09-29T11:29:35.133Z,838.60
2022-09-29T11:30:35.166Z,838.62
2022-09-29T11:31:35.108Z,838.63
2022-09-29T11:32:35.185Z,838.61
2022-09-29T11:33:35.099Z,838.64
2022-09-29T11:34:35.077Z,838.63
2022-09-29T11:35:35.089Z,838.65
2022-09-29T11:36:35.068Z,838.66
2022-09-29T11:37:37.539Z,838.67
2022-09-29T11:38:35.099Z,838.69
2022-09-29T11:39:35.023Z,838.64
2022-09-29T11:40:35.011Z,838.67
2022-09-29T11:41:35.015Z,838.65
2022-09-29T11:42:34.996Z,838.64
2022-09-29T11:43:34.985Z,838.70
2022-09-29T11:44:35.074Z,838.71
2022-09-29T11:45:35.231Z,838.66
2022-09-29T11:46:34.944Z,838.66
2022-09-29T11:47:34.930Z,838.64
2022-09-29T11:48:34.987Z,838.65
2022-09-29T11:49:34.914Z,838.66
2022-09-29T11:50:34.966Z,838.70
2022-09-29T11:51:34.946Z,838.68
2022-09-29T11:52:34.878Z,838.71
2022-09-29T11:53:34.895Z,838.69
2022-09-29T11:54:34.855Z,838.70
2022-09-29T11:55:34.851Z,838.74
2022-09-29T11:56:34.891Z,838.71
2022-09-29T11:57:34.822Z,838.71
2022-09-29T11:58:34.812Z,838.71
2022-09-29T11:59:34.804Z,838.70
2022-09-29T12:00:34.808Z,838.72
2022-09-29T12:01:34.785Z,838.72
2022-09-29T12:02:34.882Z,838.74
2022-09-29T12:03:34.760Z,838.75
2022-09-29T12:04:34.747Z,838.72
2022-09-29T12:05:34.750Z,838.81
2022-09-29T12:06:34.736Z,838.73
2022-09-29T12:07:34.716Z,838.73
2022-09-29T12:08:34.780Z,838.76
2022-09-29T12:09:34.820Z,838.77
2022-09-29T12:10:34.684Z,838.77
2022-09-29T12:11:50.999Z,838.75
2022-09-29T12:12:35.677Z,838.77
2022-09-29T12:13:34.659Z,838.81
2022-09-29T12:14:37.724Z,838.81
2022-09-29T12:15:38.695Z,838.82
2022-09-29T12:16:35.868Z,838.84
2022-09-29T12:17:34.608Z,838.89
2022-09-29T12:18:34.604Z,838.86
2022-09-29T12:19:34.599Z,838.82
2022-09-29T12:20:34.639Z,838.85
2022-09-29T12:21:34.673Z,838.84
2022-09-29T12:22:36.672Z,838.88
2022-09-29T12:23:34.543Z,838.91
2022-09-29T12:24:34.528Z,838.92
2022-09-29T12:25:34.611Z,838.92
2022-09-29T12:26:34.578Z,838.89
2022-09-29T12:27:34.534Z,838.95
2022-09-29T12:28:34.491Z,838.93